sensor_id;sensor_type;location;lat;lon;timestamp;temperature;humidity
44461;DHT22;30162;53.642;10.640;2022-07-06T00:02:01;19.10;82.60
44461;DHT22;30162;53.642;10.640;2022-07-06T00:04:27;19.10;82.60
44461;DHT22;30162;53.642;10.640;2022-07-06T00:06:52;19.20;82.70
44461;DHT22;30162;53.642;10.640;2022-07-06T00:09:18;19.10;82.70
44461;DHT22;30162;53.642;10.640;2022-07-06T00:11:43;19.10;82.70
44461;DHT22;30162;53.642;10.640;2022-07-06T00:14:09;19.00;82.70
44461;DHT22;30162;53.642;10.640;2022-07-06T00:16:35;18.90;83.80
44461;DHT22;30162;53.642;10.640;2022-07-06T00:19:00;18.90;83.70
44461;DHT22;30162;53.642;10.640;2022-07-06T00:21:26;19.00;84.00
44461;DHT22;30162;53.642;10.640;2022-07-06T00:23:51;18.90;83.90
44461;DHT22;30162;53.642;10.640;2022-07-06T00:26:18;18.80;84.10
44461;DHT22;30162;53.642;10.640;2022-07-06T00:28:44;18.80;84.50
44461;DHT22;30162;53.642;10.640;2022-07-06T00:31:10;18.70;84.80
44461;DHT22;30162;53.642;10.640;2022-07-06T00:33:35;18.80;84.80
44461;DHT22;30162;53.642;10.640;2022-07-06T00:36:01;18.70;84.90
44461;DHT22;30162;53.642;10.640;2022-07-06T00:38:27;18.50;85.40
44461;DHT22;30162;53.642;10.640;2022-07-06T00:40:52;18.50;85.70
44461;DHT22;30162;53.642;10.640;2022-07-06T00:43:18;18.30;86.20
44461;DHT22;30162;53.642;10.640;2022-07-06T00:45:43;18.20;86.80
44461;DHT22;30162;53.642;10.640;2022-07-06T00:48:10;18.20;87.20
44461;DHT22;30162;53.642;10.640;2022-07-06T00:50:35;18.20;86.90
44461;DHT22;30162;53.642;10.640;2022-07-06T00:53:03;18.00;88.00
44461;DHT22;30162;53.642;10.640;2022-07-06T00:55:32;17.90;88.70
44461;DHT22;30162;53.642;10.640;2022-07-06T00:57:58;18.10;88.30
44461;DHT22;30162;53.642;10.640;2022-07-06T01:00:27;18.10;88.50
44461;DHT22;30162;53.642;10.640;2022-07-06T01:02:53;18.20;88.40
44461;DHT22;30162;53.642;10.640;2022-07-06T01:05:19;18.20;88.20
44461;DHT22;30162;53.642;10.640;2022-07-06T01:07:47;18.30;88.60
44461;DHT22;30162;53.642;10.640;2022-07-06T01:10:15;18.30;88.40
44461;DHT22;30162;53.642;10.640;2022-07-06T01:12:42;18.40;88.20
44461;DHT22;30162;53.642;10.640;2022-07-06T01:15:11;18.30;88.60
44461;DHT22;30162;53.642;10.640;2022-07-06T01:17:39;18.30;88.70
44461;DHT22;30162;53.642;10.640;2022-07-06T01:20:22;18.40;88.50
44461;DHT22;30162;53.642;10.640;2022-07-06T01:22:49;18.50;88.10
44461;DHT22;30162;53.642;10.640;2022-07-06T01:25:15;18.60;88.30
44461;DHT22;30162;53.642;10.640;2022-07-06T01:27:41;18.60;87.50
44461;DHT22;30162;53.642;10.640;2022-07-06T01:30:11;18.60;88.00
44461;DHT22;30162;53.642;10.640;2022-07-06T01:32:38;18.70;87.20
44461;DHT22;30162;53.642;10.640;2022-07-06T01:35:08;18.60;87.60
44461;DHT22;30162;53.642;10.640;2022-07-06T01:37:34;18.60;88.20
44461;DHT22;30162;53.642;10.640;2022-07-06T01:40:00;18.70;87.70
44461;DHT22;30162;53.642;10.640;2022-07-06T01:42:27;18.70;87.90
44461;DHT22;30162;53.642;10.640;2022-07-06T01:44:53;18.70;88.20
44461;DHT22;30162;53.642;10.640;2022-07-06T01:47:18;18.80;87.10
44461;DHT22;30162;53.642;10.640;2022-07-06T01:49:44;18.90;87.50
44461;DHT22;30162;53.642;10.640;2022-07-06T01:52:09;18.90;86.90
44461;DHT22;30162;53.642;10.640;2022-07-06T01:54:35;18.60;88.30
44461;DHT22;30162;53.642;10.640;2022-07-06T01:57:00;18.70;88.30
44461;DHT22;30162;53.642;10.640;2022-07-06T01:59:26;18.80;88.10
44461;DHT22;30162;53.642;10.640;2022-07-06T02:01:51;18.90;87.80
44461;DHT22;30162;53.642;10.640;2022-07-06T02:04:17;19.00;87.60
44461;DHT22;30162;53.642;10.640;2022-07-06T02:06:42;18.90;87.40
44461;DHT22;30162;53.642;10.640;2022-07-06T02:09:08;19.10;87.30
44461;DHT22;30162;53.642;10.640;2022-07-06T02:11:34;19.10;87.40
44461;DHT22;30162;53.642;10.640;2022-07-06T02:13:59;19.10;87.60
44461;DHT22;30162;53.642;10.640;2022-07-06T02:16:25;18.90;87.50
44461;DHT22;30162;53.642;10.640;2022-07-06T02:18:50;18.80;88.10
44461;DHT22;30162;53.642;10.640;2022-07-06T02:21:16;18.80;88.20
44461;DHT22;30162;53.642;10.640;2022-07-06T02:23:42;18.80;87.90
44461;DHT22;30162;53.642;10.640;2022-07-06T02:26:07;18.90;87.50
44461;DHT22;30162;53.642;10.640;2022-07-06T02:28:33;18.90;87.60
44461;DHT22;30162;53.642;10.640;2022-07-06T02:30:58;18.90;87.50
44461;DHT22;30162;53.642;10.640;2022-07-06T02:33:24;18.90;87.40
44461;DHT22;30162;53.642;10.640;2022-07-06T02:35:50;18.90;87.30
44461;DHT22;30162;53.642;10.640;2022-07-06T02:38:15;18.80;88.00
44461;DHT22;30162;53.642;10.640;2022-07-06T02:40:41;18.80;88.40
44461;DHT22;30162;53.642;10.640;2022-07-06T02:43:06;18.80;88.30
44461;DHT22;30162;53.642;10.640;2022-07-06T02:45:32;18.90;87.50
44461;DHT22;30162;53.642;10.640;2022-07-06T02:47:58;18.80;88.10
44461;DHT22;30162;53.642;10.640;2022-07-06T02:50:24;18.80;87.60
44461;DHT22;30162;53.642;10.640;2022-07-06T02:52:50;18.70;87.80
44461;DHT22;30162;53.642;10.640;2022-07-06T02:55:15;18.70;87.90
44461;DHT22;30162;53.642;10.640;2022-07-06T02:57:41;18.80;87.60
44461;DHT22;30162;53.642;10.640;2022-07-06T03:00:07;18.90;87.00
44461;DHT22;30162;53.642;10.640;2022-07-06T03:02:34;18.70;87.40
44461;DHT22;30162;53.642;10.640;2022-07-06T03:05:00;18.60;87.80
44461;DHT22;30162;53.642;10.640;2022-07-06T03:07:26;18.50;87.60
44461;DHT22;30162;53.642;10.640;2022-07-06T03:09:51;18.40;87.30
44461;DHT22;30162;53.642;10.640;2022-07-06T03:12:17;18.60;87.20
44461;DHT22;30162;53.642;10.640;2022-07-06T03:14:42;18.60;86.40
44461;DHT22;30162;53.642;10.640;2022-07-06T03:17:08;18.70;86.20
44461;DHT22;30162;53.642;10.640;2022-07-06T03:19:34;18.60;86.70
44461;DHT22;30162;53.642;10.640;2022-07-06T03:21:59;18.50;85.70
44461;DHT22;30162;53.642;10.640;2022-07-06T03:24:25;18.60;85.20
44461;DHT22;30162;53.642;10.640;2022-07-06T03:26:51;18.70;84.80
44461;DHT22;30162;53.642;10.640;2022-07-06T03:29:16;18.80;84.10
44461;DHT22;30162;53.642;10.640;2022-07-06T03:31:42;18.60;84.00
44461;DHT22;30162;53.642;10.640;2022-07-06T03:34:07;18.50;84.90
44461;DHT22;30162;53.642;10.640;2022-07-06T03:36:33;18.60;84.80
44461;DHT22;30162;53.642;10.640;2022-07-06T03:38:58;18.80;83.80
44461;DHT22;30162;53.642;10.640;2022-07-06T03:41:24;18.90;83.70
44461;DHT22;30162;53.642;10.640;2022-07-06T03:43:49;18.80;81.90
44461;DHT22;30162;53.642;10.640;2022-07-06T03:46:15;18.80;82.50
44461;DHT22;30162;53.642;10.640;2022-07-06T03:48:40;18.80;83.00
44461;DHT22;30162;53.642;10.640;2022-07-06T03:51:06;18.80;82.80
44461;DHT22;30162;53.642;10.640;2022-07-06T03:53:32;18.70;82.80
44461;DHT22;30162;53.642;10.640;2022-07-06T03:55:58;18.80;82.70
44461;DHT22;30162;53.642;10.640;2022-07-06T03:58:42;18.80;82.80
44461;DHT22;30162;53.642;10.640;2022-07-06T04:01:07;18.90;82.20
44461;DHT22;30162;53.642;10.640;2022-07-06T04:03:33;18.90;82.40
44461;DHT22;30162;53.642;10.640;2022-07-06T04:05:58;18.90;82.40
44461;DHT22;30162;53.642;10.640;2022-07-06T04:08:24;19.00;82.10
44461;DHT22;30162;53.642;10.640;2022-07-06T04:10:49;19.10;81.80
44461;DHT22;30162;53.642;10.640;2022-07-06T04:13:15;19.00;82.10
44461;DHT22;30162;53.642;10.640;2022-07-06T04:15:40;19.20;82.20
44461;DHT22;30162;53.642;10.640;2022-07-06T04:18:06;19.10;82.80
44461;DHT22;30162;53.642;10.640;2022-07-06T04:20:31;19.20;82.70
44461;DHT22;30162;53.642;10.640;2022-07-06T04:22:57;19.30;82.40
44461;DHT22;30162;53.642;10.640;2022-07-06T04:25:22;19.40;82.10
44461;DHT22;30162;53.642;10.640;2022-07-06T04:27:48;19.30;82.20
44461;DHT22;30162;53.642;10.640;2022-07-06T04:30:14;19.20;82.40
44461;DHT22;30162;53.642;10.640;2022-07-06T04:32:39;19.00;82.80
44461;DHT22;30162;53.642;10.640;2022-07-06T04:35:05;19.10;83.40
44461;DHT22;30162;53.642;10.640;2022-07-06T04:37:31;19.10;83.90
44461;DHT22;30162;53.642;10.640;2022-07-06T04:39:57;19.20;83.80
44461;DHT22;30162;53.642;10.640;2022-07-06T04:42:23;19.30;84.00
44461;DHT22;30162;53.642;10.640;2022-07-06T04:44:49;19.40;83.80
44461;DHT22;30162;53.642;10.640;2022-07-06T04:47:17;19.10;84.20
44461;DHT22;30162;53.642;10.640;2022-07-06T04:49:43;19.30;84.40
44461;DHT22;30162;53.642;10.640;2022-07-06T04:52:08;19.50;84.30
44461;DHT22;30162;53.642;10.640;2022-07-06T04:54:34;19.30;84.70
44461;DHT22;30162;53.642;10.640;2022-07-06T04:57:00;19.50;84.40
44461;DHT22;30162;53.642;10.640;2022-07-06T04:59:25;19.70;84.70
44461;DHT22;30162;53.642;10.640;2022-07-06T05:01:51;19.60;83.90
44461;DHT22;30162;53.642;10.640;2022-07-06T05:04:16;19.70;83.80
44461;DHT22;30162;53.642;10.640;2022-07-06T05:06:45;19.60;84.30
44461;DHT22;30162;53.642;10.640;2022-07-06T05:09:11;19.80;84.60
44461;DHT22;30162;53.642;10.640;2022-07-06T05:11:37;19.90;84.50
44461;DHT22;30162;53.642;10.640;2022-07-06T05:14:03;19.90;83.90
44461;DHT22;30162;53.642;10.640;2022-07-06T05:16:29;20.20;83.00
44461;DHT22;30162;53.642;10.640;2022-07-06T05:18:54;20.20;83.40
44461;DHT22;30162;53.642;10.640;2022-07-06T05:21:20;20.10;83.50
44461;DHT22;30162;53.642;10.640;2022-07-06T05:23:45;20.10;83.40
44461;DHT22;30162;53.642;10.640;2022-07-06T05:26:11;20.30;83.00
44461;DHT22;30162;53.642;10.640;2022-07-06T05:28:36;20.00;83.50
44461;DHT22;30162;53.642;10.640;2022-07-06T05:31:02;20.10;83.60
44461;DHT22;30162;53.642;10.640;2022-07-06T05:33:28;20.20;83.00
44461;DHT22;30162;53.642;10.640;2022-07-06T05:35:53;20.00;83.30
44461;DHT22;30162;53.642;10.640;2022-07-06T05:38:19;20.20;83.90
44461;DHT22;30162;53.642;10.640;2022-07-06T05:40:44;20.20;83.80
44461;DHT22;30162;53.642;10.640;2022-07-06T05:43:10;20.10;83.70
44461;DHT22;30162;53.642;10.640;2022-07-06T05:45:36;20.30;83.10
44461;DHT22;30162;53.642;10.640;2022-07-06T05:48:01;20.10;83.60
44461;DHT22;30162;53.642;10.640;2022-07-06T05:50:45;19.80;83.70
44461;DHT22;30162;53.642;10.640;2022-07-06T05:53:11;20.00;83.50
44461;DHT22;30162;53.642;10.640;2022-07-06T05:55:36;20.10;83.20
44461;DHT22;30162;53.642;10.640;2022-07-06T05:58:02;20.30;82.60
44461;DHT22;30162;53.642;10.640;2022-07-06T06:00:28;20.40;83.00
44461;DHT22;30162;53.642;10.640;2022-07-06T06:02:54;20.20;83.40
44461;DHT22;30162;53.642;10.640;2022-07-06T06:05:20;20.00;83.50
44461;DHT22;30162;53.642;10.640;2022-07-06T06:07:46;20.00;83.30
44461;DHT22;30162;53.642;10.640;2022-07-06T06:10:14;19.80;84.30
44461;DHT22;30162;53.642;10.640;2022-07-06T06:12:41;19.60;84.40
44461;DHT22;30162;53.642;10.640;2022-07-06T06:15:07;19.60;84.70
44461;DHT22;30162;53.642;10.640;2022-07-06T06:17:34;19.70;84.80
44461;DHT22;30162;53.642;10.640;2022-07-06T06:20:00;20.00;84.50
44461;DHT22;30162;53.642;10.640;2022-07-06T06:22:26;20.10;83.90
44461;DHT22;30162;53.642;10.640;2022-07-06T06:24:52;20.40;83.20
44461;DHT22;30162;53.642;10.640;2022-07-06T06:27:18;20.50;82.70
44461;DHT22;30162;53.642;10.640;2022-07-06T06:29:44;20.60;83.20
44461;DHT22;30162;53.642;10.640;2022-07-06T06:32:13;20.60;82.90
44461;DHT22;30162;53.642;10.640;2022-07-06T06:34:39;20.40;83.00
44461;DHT22;30162;53.642;10.640;2022-07-06T06:37:05;20.30;83.30
44461;DHT22;30162;53.642;10.640;2022-07-06T06:39:31;20.00;83.30
44461;DHT22;30162;53.642;10.640;2022-07-06T06:41:57;20.10;83.70
44461;DHT22;30162;53.642;10.640;2022-07-06T06:44:22;20.30;83.80
44461;DHT22;30162;53.642;10.640;2022-07-06T06:46:49;20.50;82.70
44461;DHT22;30162;53.642;10.640;2022-07-06T06:49:14;20.60;82.60
44461;DHT22;30162;53.642;10.640;2022-07-06T06:51:40;20.80;81.80
44461;DHT22;30162;53.642;10.640;2022-07-06T06:54:06;20.80;82.10
44461;DHT22;30162;53.642;10.640;2022-07-06T06:56:31;21.30;81.80
44461;DHT22;30162;53.642;10.640;2022-07-06T06:58:57;21.00;81.80
44461;DHT22;30162;53.642;10.640;2022-07-06T07:01:22;20.80;80.70
44461;DHT22;30162;53.642;10.640;2022-07-06T07:03:49;20.80;82.20
44461;DHT22;30162;53.642;10.640;2022-07-06T07:06:15;20.90;82.70
44461;DHT22;30162;53.642;10.640;2022-07-06T07:08:40;20.90;82.40
44461;DHT22;30162;53.642;10.640;2022-07-06T07:11:06;21.30;81.60
44461;DHT22;30162;53.642;10.640;2022-07-06T07:13:31;21.50;80.80
44461;DHT22;30162;53.642;10.640;2022-07-06T07:15:57;21.50;79.70
44461;DHT22;30162;53.642;10.640;2022-07-06T07:18:22;21.30;80.20
44461;DHT22;30162;53.642;10.640;2022-07-06T07:20:48;21.20;80.20
44461;DHT22;30162;53.642;10.640;2022-07-06T07:23:14;21.50;81.10
44461;DHT22;30162;53.642;10.640;2022-07-06T07:25:40;21.80;80.30
44461;DHT22;30162;53.642;10.640;2022-07-06T07:28:05;21.80;77.60
44461;DHT22;30162;53.642;10.640;2022-07-06T07:30:31;21.60;78.80
44461;DHT22;30162;53.642;10.640;2022-07-06T07:32:56;21.90;78.30
44461;DHT22;30162;53.642;10.640;2022-07-06T07:35:22;22.10;77.60
44461;DHT22;30162;53.642;10.640;2022-07-06T07:37:48;22.10;78.60
44461;DHT22;30162;53.642;10.640;2022-07-06T07:40:14;22.10;78.10
44461;DHT22;30162;53.642;10.640;2022-07-06T07:42:39;22.50;77.10
44461;DHT22;30162;53.642;10.640;2022-07-06T07:45:07;22.50;77.40
44461;DHT22;30162;53.642;10.640;2022-07-06T07:47:33;22.50;75.70
44461;DHT22;30162;53.642;10.640;2022-07-06T07:49:58;22.10;76.70
44461;DHT22;30162;53.642;10.640;2022-07-06T07:52:24;21.90;76.10
44461;DHT22;30162;53.642;10.640;2022-07-06T07:54:49;21.60;76.70
44461;DHT22;30162;53.642;10.640;2022-07-06T07:57:15;21.70;77.00
44461;DHT22;30162;53.642;10.640;2022-07-06T07:59:40;21.50;76.90
44461;DHT22;30162;53.642;10.640;2022-07-06T08:02:07;21.20;78.00
44461;DHT22;30162;53.642;10.640;2022-07-06T08:04:33;21.40;77.80
44461;DHT22;30162;53.642;10.640;2022-07-06T08:06:58;21.60;77.50
44461;DHT22;30162;53.642;10.640;2022-07-06T08:09:24;21.80;77.80
44461;DHT22;30162;53.642;10.640;2022-07-06T08:11:50;21.90;78.10
44461;DHT22;30162;53.642;10.640;2022-07-06T08:14:16;21.80;78.40
44461;DHT22;30162;53.642;10.640;2022-07-06T08:16:42;21.90;78.20
44461;DHT22;30162;53.642;10.640;2022-07-06T08:19:08;21.90;77.40
44461;DHT22;30162;53.642;10.640;2022-07-06T08:21:34;21.90;76.80
44461;DHT22;30162;53.642;10.640;2022-07-06T08:24:00;22.40;76.80
44461;DHT22;30162;53.642;10.640;2022-07-06T08:26:26;22.70;75.90
44461;DHT22;30162;53.642;10.640;2022-07-06T08:28:51;22.50;75.40
44461;DHT22;30162;53.642;10.640;2022-07-06T08:31:17;22.60;75.60
44461;DHT22;30162;53.642;10.640;2022-07-06T08:33:43;22.50;75.30
44461;DHT22;30162;53.642;10.640;2022-07-06T08:36:08;22.40;75.80
44461;DHT22;30162;53.642;10.640;2022-07-06T08:38:34;22.10;76.70
44461;DHT22;30162;53.642;10.640;2022-07-06T08:41:00;21.90;76.10
44461;DHT22;30162;53.642;10.640;2022-07-06T08:43:25;21.80;77.40
44461;DHT22;30162;53.642;10.640;2022-07-06T08:45:53;21.60;77.90
44461;DHT22;30162;53.642;10.640;2022-07-06T08:48:19;21.70;78.40
44461;DHT22;30162;53.642;10.640;2022-07-06T08:50:47;21.60;78.10
44461;DHT22;30162;53.642;10.640;2022-07-06T08:53:15;21.70;79.00
44461;DHT22;30162;53.642;10.640;2022-07-06T08:55:42;21.70;80.20
44461;DHT22;30162;53.642;10.640;2022-07-06T08:58:07;21.90;78.20
44461;DHT22;30162;53.642;10.640;2022-07-06T09:00:34;22.10;78.40
44461;DHT22;30162;53.642;10.640;2022-07-06T09:03:00;22.20;77.90
44461;DHT22;30162;53.642;10.640;2022-07-06T09:05:26;22.40;78.00
44461;DHT22;30162;53.642;10.640;2022-07-06T09:07:52;22.70;78.40
44461;DHT22;30162;53.642;10.640;2022-07-06T09:10:20;23.50;77.60
44461;DHT22;30162;53.642;10.640;2022-07-06T09:12:47;24.10;74.70
44461;DHT22;30162;53.642;10.640;2022-07-06T09:15:13;24.40;72.60
44461;DHT22;30162;53.642;10.640;2022-07-06T09:17:40;24.50;71.20
44461;DHT22;30162;53.642;10.640;2022-07-06T09:20:07;24.40;70.20
44461;DHT22;30162;53.642;10.640;2022-07-06T09:22:34;23.70;70.50
44461;DHT22;30162;53.642;10.640;2022-07-06T09:25:08;23.60;72.10
44461;DHT22;30162;53.642;10.640;2022-07-06T09:27:39;23.70;72.90
44461;DHT22;30162;53.642;10.640;2022-07-06T09:30:09;23.80;71.90
44461;DHT22;30162;53.642;10.640;2022-07-06T09:32:43;24.10;70.50
44461;DHT22;30162;53.642;10.640;2022-07-06T09:35:23;24.10;71.10
44461;DHT22;30162;53.642;10.640;2022-07-06T09:38:11;24.30;68.50
44461;DHT22;30162;53.642;10.640;2022-07-06T09:40:39;24.10;70.30
44461;DHT22;30162;53.642;10.640;2022-07-06T09:43:19;24.30;68.70
44461;DHT22;30162;53.642;10.640;2022-07-06T09:45:50;24.40;69.40
44461;DHT22;30162;53.642;10.640;2022-07-06T09:48:17;24.40;68.70
44461;DHT22;30162;53.642;10.640;2022-07-06T09:50:57;24.10;69.30
44461;DHT22;30162;53.642;10.640;2022-07-06T09:53:25;23.60;69.70
44461;DHT22;30162;53.642;10.640;2022-07-06T09:55:55;23.30;70.30
44461;DHT22;30162;53.642;10.640;2022-07-06T09:58:23;23.20;71.80
44461;DHT22;30162;53.642;10.640;2022-07-06T10:00:50;23.00;72.60
44461;DHT22;30162;53.642;10.640;2022-07-06T10:03:17;22.30;74.50
44461;DHT22;30162;53.642;10.640;2022-07-06T10:05:47;22.10;77.30
44461;DHT22;30162;53.642;10.640;2022-07-06T10:08:14;21.50;78.30
44461;DHT22;30162;53.642;10.640;2022-07-06T10:10:40;21.10;78.70
44461;DHT22;30162;53.642;10.640;2022-07-06T10:13:06;21.00;81.80
44461;DHT22;30162;53.642;10.640;2022-07-06T10:15:34;20.40;81.30
44461;DHT22;30162;53.642;10.640;2022-07-06T10:18:00;20.20;83.00
44461;DHT22;30162;53.642;10.640;2022-07-06T10:20:32;20.60;83.70
44461;DHT22;30162;53.642;10.640;2022-07-06T10:23:00;20.50;83.60
44461;DHT22;30162;53.642;10.640;2022-07-06T10:25:26;20.90;83.50
44461;DHT22;30162;53.642;10.640;2022-07-06T10:27:52;21.10;83.70
44461;DHT22;30162;53.642;10.640;2022-07-06T10:30:18;21.10;82.60
44461;DHT22;30162;53.642;10.640;2022-07-06T10:32:46;21.10;81.00
44461;DHT22;30162;53.642;10.640;2022-07-06T10:35:13;21.30;82.90
44461;DHT22;30162;53.642;10.640;2022-07-06T10:37:39;21.80;80.70
44461;DHT22;30162;53.642;10.640;2022-07-06T10:40:05;22.20;80.20
44461;DHT22;30162;53.642;10.640;2022-07-06T10:42:58;22.60;78.50
44461;DHT22;30162;53.642;10.640;2022-07-06T10:50:37;23.80;73.30
44461;DHT22;30162;53.642;10.640;2022-07-06T10:53:10;24.10;71.60
44461;DHT22;30162;53.642;10.640;2022-07-06T10:55:37;24.00;73.70
44461;DHT22;30162;53.642;10.640;2022-07-06T10:58:04;23.90;71.20
44461;DHT22;30162;53.642;10.640;2022-07-06T11:03:43;23.50;72.60
44461;DHT22;30162;53.642;10.640;2022-07-06T11:06:15;23.20;72.00
44461;DHT22;30162;53.642;10.640;2022-07-06T11:11:26;22.90;72.00
44461;DHT22;30162;53.642;10.640;2022-07-06T11:14:05;22.80;71.20
44461;DHT22;30162;53.642;10.640;2022-07-06T11:16:37;23.40;72.20
44461;DHT22;30162;53.642;10.640;2022-07-06T11:19:11;23.80;71.90
44461;DHT22;30162;53.642;10.640;2022-07-06T11:21:50;24.20;70.00
44461;DHT22;30162;53.642;10.640;2022-07-06T11:24:19;24.40;68.20
44461;DHT22;30162;53.642;10.640;2022-07-06T11:26:46;24.60;68.00
44461;DHT22;30162;53.642;10.640;2022-07-06T11:29:13;24.40;68.00
44461;DHT22;30162;53.642;10.640;2022-07-06T11:31:41;24.10;68.10
44461;DHT22;30162;53.642;10.640;2022-07-06T11:34:10;23.90;66.70
44461;DHT22;30162;53.642;10.640;2022-07-06T11:36:37;23.70;69.00
44461;DHT22;30162;53.642;10.640;2022-07-06T11:39:03;23.70;68.90
44461;DHT22;30162;53.642;10.640;2022-07-06T11:41:31;23.80;68.80
44461;DHT22;30162;53.642;10.640;2022-07-06T11:43:56;24.10;66.90
44461;DHT22;30162;53.642;10.640;2022-07-06T11:46:29;24.30;67.80
44461;DHT22;30162;53.642;10.640;2022-07-06T11:48:57;24.40;65.30
44461;DHT22;30162;53.642;10.640;2022-07-06T11:51:25;24.10;63.20
44461;DHT22;30162;53.642;10.640;2022-07-06T11:53:54;23.60;62.70
44461;DHT22;30162;53.642;10.640;2022-07-06T11:56:21;23.40;63.40
44461;DHT22;30162;53.642;10.640;2022-07-06T11:58:52;23.40;63.80
44461;DHT22;30162;53.642;10.640;2022-07-06T12:01:17;23.90;65.80
44461;DHT22;30162;53.642;10.640;2022-07-06T12:03:44;23.70;63.40
44461;DHT22;30162;53.642;10.640;2022-07-06T12:06:18;24.00;64.30
44461;DHT22;30162;53.642;10.640;2022-07-06T12:08:53;24.20;64.20
44461;DHT22;30162;53.642;10.640;2022-07-06T12:13:53;24.70;63.20
44461;DHT22;30162;53.642;10.640;2022-07-06T12:16:20;23.70;61.70
44461;DHT22;30162;53.642;10.640;2022-07-06T12:18:49;24.10;63.20
44461;DHT22;30162;53.642;10.640;2022-07-06T12:21:18;24.20;64.30
44461;DHT22;30162;53.642;10.640;2022-07-06T12:23:49;23.00;63.50
44461;DHT22;30162;53.642;10.640;2022-07-06T12:26:17;23.40;64.20
44461;DHT22;30162;53.642;10.640;2022-07-06T12:28:43;23.90;64.00
44461;DHT22;30162;53.642;10.640;2022-07-06T12:31:09;24.00;63.10
44461;DHT22;30162;53.642;10.640;2022-07-06T12:33:35;24.50;63.70
44461;DHT22;30162;53.642;10.640;2022-07-06T12:36:14;24.10;64.40
44461;DHT22;30162;53.642;10.640;2022-07-06T12:38:47;23.70;63.60
44461;DHT22;30162;53.642;10.640;2022-07-06T12:41:31;23.70;64.30
44461;DHT22;30162;53.642;10.640;2022-07-06T12:44:06;23.70;64.30
44461;DHT22;30162;53.642;10.640;2022-07-06T12:49:00;23.20;65.30
44461;DHT22;30162;53.642;10.640;2022-07-06T12:51:26;23.10;66.00
44461;DHT22;30162;53.642;10.640;2022-07-06T12:53:52;23.10;66.50
44461;DHT22;30162;53.642;10.640;2022-07-06T12:56:18;23.00;66.60
44461;DHT22;30162;53.642;10.640;2022-07-06T12:59:00;22.70;67.60
44461;DHT22;30162;53.642;10.640;2022-07-06T13:01:26;22.70;67.60
44461;DHT22;30162;53.642;10.640;2022-07-06T13:04:01;22.60;68.60
44461;DHT22;30162;53.642;10.640;2022-07-06T13:06:29;22.10;69.60
44461;DHT22;30162;53.642;10.640;2022-07-06T13:08:54;22.10;71.50
44461;DHT22;30162;53.642;10.640;2022-07-06T13:11:20;22.40;71.30
44461;DHT22;30162;53.642;10.640;2022-07-06T13:13:45;22.70;70.70
44461;DHT22;30162;53.642;10.640;2022-07-06T13:16:11;22.80;70.60
44461;DHT22;30162;53.642;10.640;2022-07-06T13:18:36;23.00;71.00
44461;DHT22;30162;53.642;10.640;2022-07-06T13:21:02;23.30;69.60
44461;DHT22;30162;53.642;10.640;2022-07-06T13:23:27;23.50;68.70
44461;DHT22;30162;53.642;10.640;2022-07-06T13:25:53;23.70;67.80
44461;DHT22;30162;53.642;10.640;2022-07-06T13:28:19;24.50;68.80
44461;DHT22;30162;53.642;10.640;2022-07-06T13:30:44;25.10;67.40
44461;DHT22;30162;53.642;10.640;2022-07-06T13:33:10;25.50;64.30
44461;DHT22;30162;53.642;10.640;2022-07-06T13:35:35;25.20;61.90
44461;DHT22;30162;53.642;10.640;2022-07-06T13:38:01;25.00;62.70
44461;DHT22;30162;53.642;10.640;2022-07-06T13:40:27;24.50;61.80
44461;DHT22;30162;53.642;10.640;2022-07-06T13:42:52;24.50;63.70
44461;DHT22;30162;53.642;10.640;2022-07-06T13:45:19;24.50;64.90
44461;DHT22;30162;53.642;10.640;2022-07-06T13:47:45;24.80;65.10
44461;DHT22;30162;53.642;10.640;2022-07-06T13:50:11;24.90;64.00
44461;DHT22;30162;53.642;10.640;2022-07-06T13:52:36;25.00;62.80
44461;DHT22;30162;53.642;10.640;2022-07-06T13:55:03;25.70;63.30
44461;DHT22;30162;53.642;10.640;2022-07-06T13:57:29;26.20;62.60
44461;DHT22;30162;53.642;10.640;2022-07-06T13:59:54;26.40;61.70
44461;DHT22;30162;53.642;10.640;2022-07-06T14:02:20;26.40;60.20
44461;DHT22;30162;53.642;10.640;2022-07-06T14:04:45;26.50;60.50
44461;DHT22;30162;53.642;10.640;2022-07-06T14:07:11;26.50;59.70
44461;DHT22;30162;53.642;10.640;2022-07-06T14:09:37;26.80;59.30
44461;DHT22;30162;53.642;10.640;2022-07-06T14:12:02;26.80;58.80
44461;DHT22;30162;53.642;10.640;2022-07-06T14:14:28;26.30;58.70
44461;DHT22;30162;53.642;10.640;2022-07-06T14:16:54;26.70;60.40
44461;DHT22;30162;53.642;10.640;2022-07-06T14:19:21;26.40;58.70
44461;DHT22;30162;53.642;10.640;2022-07-06T14:21:47;26.30;58.70
44461;DHT22;30162;53.642;10.640;2022-07-06T14:24:14;26.10;58.70
44461;DHT22;30162;53.642;10.640;2022-07-06T14:26:39;26.00;57.90
44461;DHT22;30162;53.642;10.640;2022-07-06T14:29:05;25.70;60.00
44461;DHT22;30162;53.642;10.640;2022-07-06T14:31:31;25.90;59.00
44461;DHT22;30162;53.642;10.640;2022-07-06T14:33:56;25.60;59.80
44461;DHT22;30162;53.642;10.640;2022-07-06T14:36:22;25.80;58.70
44461;DHT22;30162;53.642;10.640;2022-07-06T14:38:48;25.70;58.90
44461;DHT22;30162;53.642;10.640;2022-07-06T14:41:14;25.10;58.70
44461;DHT22;30162;53.642;10.640;2022-07-06T14:43:39;25.20;59.80
44461;DHT22;30162;53.642;10.640;2022-07-06T14:46:05;25.50;60.80
44461;DHT22;30162;53.642;10.640;2022-07-06T14:48:31;25.30;60.10
44461;DHT22;30162;53.642;10.640;2022-07-06T14:50:56;24.70;60.30
44461;DHT22;30162;53.642;10.640;2022-07-06T14:53:23;25.10;60.80
44461;DHT22;30162;53.642;10.640;2022-07-06T14:55:48;25.50;58.70
44461;DHT22;30162;53.642;10.640;2022-07-06T14:58:14;25.70;58.30
44461;DHT22;30162;53.642;10.640;2022-07-06T15:00:44;25.40;57.80
44461;DHT22;30162;53.642;10.640;2022-07-06T15:03:09;25.50;57.50
44461;DHT22;30162;53.642;10.640;2022-07-06T15:05:36;25.40;56.90
44461;DHT22;30162;53.642;10.640;2022-07-06T15:08:01;24.90;56.90
44461;DHT22;30162;53.642;10.640;2022-07-06T15:10:27;24.90;56.90
44461;DHT22;30162;53.642;10.640;2022-07-06T15:12:53;24.90;57.60
44461;DHT22;30162;53.642;10.640;2022-07-06T15:15:19;24.90;57.90
44461;DHT22;30162;53.642;10.640;2022-07-06T15:17:45;24.40;58.10
44461;DHT22;30162;53.642;10.640;2022-07-06T15:20:11;24.10;58.90
44461;DHT22;30162;53.642;10.640;2022-07-06T15:22:37;24.60;57.80
44461;DHT22;30162;53.642;10.640;2022-07-06T15:25:03;25.00;58.50
44461;DHT22;30162;53.642;10.640;2022-07-06T15:27:29;24.90;58.60
44461;DHT22;30162;53.642;10.640;2022-07-06T15:29:55;24.90;57.60